sensor_id;sensor_type;location;lat;lon;timestamp;P1;durP1;ratioP1;P2;durP2;ratioP2
10031;SDS011;5056;44.272;19.892;2022-07-23T00:00:52;4.65;;;4.35;;
10031;SDS011;5056;44.272;19.892;2022-07-23T00:03:18;5.22;;;4.18;;
10031;SDS011;5056;44.272;19.892;2022-07-23T00:05:47;4.25;;;3.95;;
10031;SDS011;5056;44.272;19.892;2022-07-23T00:08:14;4.38;;;3.60;;
10031;SDS011;5056;44.272;19.892;2022-07-23T00:10:41;4.20;;;3.80;;
10031;SDS011;5056;44.272;19.892;2022-07-23T00:13:08;5.18;;;4.20;;
10031;SDS011;5056;44.272;19.892;2022-07-23T00:15:35;4.15;;;3.85;;
10031;SDS011;5056;44.272;19.892;2022-07-23T00:18:03;4.10;;;3.80;;
10031;SDS011;5056;44.272;19.892;2022-07-23T00:23:32;7.55;;;3.40;;
10031;SDS011;5056;44.272;19.892;2022-07-23T00:25:59;3.85;;;3.58;;
10031;SDS011;5056;44.272;19.892;2022-07-23T00:28:28;4.10;;;3.70;;
10031;SDS011;5056;44.272;19.892;2022-07-23T00:30:56;5.22;;;3.45;;
10031;SDS011;5056;44.272;19.892;2022-07-23T00:33:23;3.50;;;3.30;;
10031;SDS011;5056;44.272;19.892;2022-07-23T00:35:51;4.88;;;3.83;;
10031;SDS011;5056;44.272;19.892;2022-07-23T00:38:20;3.95;;;3.65;;
10031;SDS011;5056;44.272;19.892;2022-07-23T00:40:47;4.00;;;3.70;;
10031;SDS011;5056;44.272;19.892;2022-07-23T00:43:21;5.18;;;3.80;;
10031;SDS011;5056;44.272;19.892;2022-07-23T00:45:50;3.78;;;3.40;;
10031;SDS011;5056;44.272;19.892;2022-07-23T00:48:17;3.85;;;3.55;;
10031;SDS011;5056;44.272;19.892;2022-07-23T00:50:45;3.65;;;3.35;;
10031;SDS011;5056;44.272;19.892;2022-07-23T00:53:12;4.22;;;3.20;;
10031;SDS011;5056;44.272;19.892;2022-07-23T00:55:40;4.85;;;3.60;;
10031;SDS011;5056;44.272;19.892;2022-07-23T00:58:08;5.40;;;3.92;;
10031;SDS011;5056;44.272;19.892;2022-07-23T01:00:36;4.13;;;3.70;;
10031;SDS011;5056;44.272;19.892;2022-07-23T01:03:05;4.22;;;3.83;;
10031;SDS011;5056;44.272;19.892;2022-07-23T01:05:38;4.72;;;3.95;;
10031;SDS011;5056;44.272;19.892;2022-07-23T01:08:06;6.97;;;3.97;;
10031;SDS011;5056;44.272;19.892;2022-07-23T01:10:33;5.10;;;3.40;;
10031;SDS011;5056;44.272;19.892;2022-07-23T01:13:05;4.93;;;3.70;;
10031;SDS011;5056;44.272;19.892;2022-07-23T01:15:32;4.45;;;4.05;;
10031;SDS011;5056;44.272;19.892;2022-07-23T01:18:00;3.42;;;3.22;;
10031;SDS011;5056;44.272;19.892;2022-07-23T01:20:27;3.85;;;3.50;;
10031;SDS011;5056;44.272;19.892;2022-07-23T01:22:55;3.80;;;3.50;;
10031;SDS011;5056;44.272;19.892;2022-07-23T01:25:23;3.83;;;3.58;;
10031;SDS011;5056;44.272;19.892;2022-07-23T01:27:55;4.60;;;3.47;;
10031;SDS011;5056;44.272;19.892;2022-07-23T01:30:22;3.63;;;3.33;;
10031;SDS011;5056;44.272;19.892;2022-07-23T01:32:48;4.22;;;3.63;;
10031;SDS011;5056;44.272;19.892;2022-07-23T01:35:15;3.97;;;3.67;;
10031;SDS011;5056;44.272;19.892;2022-07-23T01:37:42;4.15;;;3.83;;
10031;SDS011;5056;44.272;19.892;2022-07-23T01:40:11;4.40;;;4.10;;
10031;SDS011;5056;44.272;19.892;2022-07-23T01:42:39;4.03;;;3.65;;
10031;SDS011;5056;44.272;19.892;2022-07-23T01:45:06;4.25;;;3.55;;
10031;SDS011;5056;44.272;19.892;2022-07-23T01:47:35;4.15;;;3.78;;
10031;SDS011;5056;44.272;19.892;2022-07-23T01:50:02;4.03;;;3.72;;
10031;SDS011;5056;44.272;19.892;2022-07-23T01:52:29;3.78;;;3.40;;
10031;SDS011;5056;44.272;19.892;2022-07-23T01:54:56;3.90;;;3.60;;
10031;SDS011;5056;44.272;19.892;2022-07-23T01:57:25;5.15;;;3.58;;
10031;SDS011;5056;44.272;19.892;2022-07-23T01:59:52;5.22;;;3.53;;
10031;SDS011;5056;44.272;19.892;2022-07-23T02:02:19;3.92;;;3.53;;
10031;SDS011;5056;44.272;19.892;2022-07-23T02:04:48;3.97;;;3.67;;
10031;SDS011;5056;44.272;19.892;2022-07-23T02:07:14;3.50;;;3.25;;
10031;SDS011;5056;44.272;19.892;2022-07-23T02:09:42;3.45;;;3.10;;
10031;SDS011;5056;44.272;19.892;2022-07-23T02:12:09;3.30;;;2.85;;
10031;SDS011;5056;44.272;19.892;2022-07-23T02:14:38;3.65;;;3.35;;
10031;SDS011;5056;44.272;19.892;2022-07-23T02:17:05;3.60;;;3.40;;
10031;SDS011;5056;44.272;19.892;2022-07-23T02:19:32;3.53;;;3.22;;
10031;SDS011;5056;44.272;19.892;2022-07-23T02:22:00;4.45;;;3.58;;
10031;SDS011;5056;44.272;19.892;2022-07-23T02:24:28;4.68;;;4.18;;
10031;SDS011;5056;44.272;19.892;2022-07-23T02:26:55;3.50;;;3.30;;
10031;SDS011;5056;44.272;19.892;2022-07-23T02:29:22;4.13;;;3.72;;
10031;SDS011;5056;44.272;19.892;2022-07-23T02:31:51;4.30;;;4.00;;
10031;SDS011;5056;44.272;19.892;2022-07-23T02:34:18;3.90;;;3.60;;
10031;SDS011;5056;44.272;19.892;2022-07-23T02:36:46;4.05;;;3.75;;
10031;SDS011;5056;44.272;19.892;2022-07-23T02:39:14;4.13;;;3.83;;
10031;SDS011;5056;44.272;19.892;2022-07-23T02:41:42;4.18;;;3.72;;
10031;SDS011;5056;44.272;19.892;2022-07-23T02:44:09;4.60;;;3.63;;
10031;SDS011;5056;44.272;19.892;2022-07-23T02:46:36;4.03;;;3.80;;
10031;SDS011;5056;44.272;19.892;2022-07-23T02:49:04;4.13;;;3.72;;
10031;SDS011;5056;44.272;19.892;2022-07-23T02:51:32;3.85;;;3.55;;
10031;SDS011;5056;44.272;19.892;2022-07-23T02:53:59;3.72;;;3.42;;
10031;SDS011;5056;44.272;19.892;2022-07-23T02:56:27;3.67;;;3.38;;
10031;SDS011;5056;44.272;19.892;2022-07-23T02:58:54;3.72;;;3.53;;
10031;SDS011;5056;44.272;19.892;2022-07-23T03:01:21;4.50;;;4.10;;
10031;SDS011;5056;44.272;19.892;2022-07-23T03:03:48;4.30;;;4.00;;
10031;SDS011;5056;44.272;19.892;2022-07-23T03:06:16;6.90;;;3.78;;
10031;SDS011;5056;44.272;19.892;2022-07-23T03:08:44;4.47;;;4.07;;
10031;SDS011;5056;44.272;19.892;2022-07-23T03:11:10;4.30;;;3.92;;
10031;SDS011;5056;44.272;19.892;2022-07-23T03:13:38;4.45;;;4.05;;
10031;SDS011;5056;44.272;19.892;2022-07-23T03:16:05;3.92;;;3.45;;
10031;SDS011;5056;44.272;19.892;2022-07-23T03:18:32;4.03;;;3.72;;
10031;SDS011;5056;44.272;19.892;2022-07-23T03:20:59;4.00;;;3.70;;
10031;SDS011;5056;44.272;19.892;2022-07-23T03:23:28;4.20;;;3.70;;
10031;SDS011;5056;44.272;19.892;2022-07-23T03:25:55;4.03;;;3.67;;
10031;SDS011;5056;44.272;19.892;2022-07-23T03:28:22;4.38;;;3.78;;
10031;SDS011;5056;44.272;19.892;2022-07-23T03:30:49;4.00;;;3.70;;
10031;SDS011;5056;44.272;19.892;2022-07-23T03:33:17;5.28;;;3.55;;
10031;SDS011;5056;44.272;19.892;2022-07-23T03:35:45;4.45;;;4.03;;
10031;SDS011;5056;44.272;19.892;2022-07-23T03:38:13;5.25;;;4.07;;
10031;SDS011;5056;44.272;19.892;2022-07-23T03:40:42;3.92;;;3.60;;
10031;SDS011;5056;44.272;19.892;2022-07-23T03:43:11;4.38;;;4.00;;
10031;SDS011;5056;44.272;19.892;2022-07-23T03:45:38;4.55;;;3.65;;
10031;SDS011;5056;44.272;19.892;2022-07-23T03:48:05;4.68;;;4.28;;
10031;SDS011;5056;44.272;19.892;2022-07-23T03:50:32;4.00;;;3.60;;
10031;SDS011;5056;44.272;19.892;2022-07-23T03:52:59;4.15;;;3.78;;
10031;SDS011;5056;44.272;19.892;2022-07-23T03:55:27;7.32;;;4.43;;
10031;SDS011;5056;44.272;19.892;2022-07-23T03:57:55;4.10;;;3.80;;
10031;SDS011;5056;44.272;19.892;2022-07-23T04:00:22;4.03;;;3.72;;
10031;SDS011;5056;44.272;19.892;2022-07-23T04:02:50;4.07;;;3.75;;
10031;SDS011;5056;44.272;19.892;2022-07-23T04:05:29;4.18;;;3.78;;
10031;SDS011;5056;44.272;19.892;2022-07-23T04:07:56;8.05;;;4.10;;
10031;SDS011;5056;44.272;19.892;2022-07-23T04:10:25;6.35;;;4.60;;
10031;SDS011;5056;44.272;19.892;2022-07-23T04:12:52;4.32;;;3.92;;
10031;SDS011;5056;44.272;19.892;2022-07-23T04:15:21;8.05;;;4.00;;
10031;SDS011;5056;44.272;19.892;2022-07-23T04:17:48;4.28;;;3.95;;
10031;SDS011;5056;44.272;19.892;2022-07-23T04:20:17;5.85;;;4.40;;
10031;SDS011;5056;44.272;19.892;2022-07-23T04:22:46;5.05;;;4.65;;
10031;SDS011;5056;44.272;19.892;2022-07-23T04:25:16;5.30;;;4.80;;
10031;SDS011;5056;44.272;19.892;2022-07-23T04:27:43;6.15;;;5.65;;
10031;SDS011;5056;44.272;19.892;2022-07-23T04:30:11;7.60;;;6.75;;
10031;SDS011;5056;44.272;19.892;2022-07-23T04:32:40;6.72;;;6.07;;
10031;SDS011;5056;44.272;19.892;2022-07-23T04:35:07;5.65;;;5.15;;
10031;SDS011;5056;44.272;19.892;2022-07-23T04:37:35;6.25;;;5.00;;
10031;SDS011;5056;44.272;19.892;2022-07-23T04:40:02;5.00;;;4.50;;
10031;SDS011;5056;44.272;19.892;2022-07-23T04:42:32;5.93;;;4.53;;
10031;SDS011;5056;44.272;19.892;2022-07-23T04:44:59;6.75;;;4.43;;
10031;SDS011;5056;44.272;19.892;2022-07-23T04:47:28;4.28;;;3.88;;
10031;SDS011;5056;44.272;19.892;2022-07-23T04:49:57;5.20;;;4.10;;
10031;SDS011;5056;44.272;19.892;2022-07-23T04:52:24;4.68;;;4.20;;
10031;SDS011;5056;44.272;19.892;2022-07-23T04:54:52;4.22;;;3.92;;
10031;SDS011;5056;44.272;19.892;2022-07-23T04:57:20;4.97;;;3.90;;
10031;SDS011;5056;44.272;19.892;2022-07-23T04:59:47;4.45;;;4.10;;
10031;SDS011;5056;44.272;19.892;2022-07-23T05:02:42;6.03;;;4.30;;
10031;SDS011;5056;44.272;19.892;2022-07-23T05:05:15;7.07;;;4.28;;
10031;SDS011;5056;44.272;19.892;2022-07-23T05:10:54;7.10;;;4.25;;
10031;SDS011;5056;44.272;19.892;2022-07-23T05:13:21;6.05;;;4.45;;
10031;SDS011;5056;44.272;19.892;2022-07-23T05:15:55;7.88;;;4.45;;
10031;SDS011;5056;44.272;19.892;2022-07-23T05:18:23;6.72;;;4.63;;
10031;SDS011;5056;44.272;19.892;2022-07-23T05:20:52;6.53;;;5.00;;
10031;SDS011;5056;44.272;19.892;2022-07-23T05:23:19;5.90;;;5.28;;
10031;SDS011;5056;44.272;19.892;2022-07-23T05:25:46;4.95;;;4.55;;
10031;SDS011;5056;44.272;19.892;2022-07-23T05:28:13;6.07;;;4.07;;
10031;SDS011;5056;44.272;19.892;2022-07-23T05:30:41;5.68;;;4.53;;
10031;SDS011;5056;44.272;19.892;2022-07-23T05:33:09;5.18;;;4.57;;
10031;SDS011;5056;44.272;19.892;2022-07-23T05:35:37;5.60;;;4.47;;
10031;SDS011;5056;44.272;19.892;2022-07-23T05:38:09;5.15;;;4.32;;
10031;SDS011;5056;44.272;19.892;2022-07-23T05:40:36;4.95;;;4.50;;
10031;SDS011;5056;44.272;19.892;2022-07-23T05:43:03;4.32;;;3.88;;
10031;SDS011;5056;44.272;19.892;2022-07-23T05:45:33;4.55;;;4.18;;
10031;SDS011;5056;44.272;19.892;2022-07-23T05:48:08;5.78;;;4.40;;
10031;SDS011;5056;44.272;19.892;2022-07-23T05:50:35;5.57;;;4.97;;
10031;SDS011;5056;44.272;19.892;2022-07-23T05:55:48;5.57;;;4.00;;
10031;SDS011;5056;44.272;19.892;2022-07-23T05:58:17;4.68;;;4.28;;
10031;SDS011;5056;44.272;19.892;2022-07-23T06:01:04;4.43;;;4.03;;
10031;SDS011;5056;44.272;19.892;2022-07-23T06:03:31;4.35;;;3.95;;
10031;SDS011;5056;44.272;19.892;2022-07-23T06:05:59;4.25;;;3.95;;
10031;SDS011;5056;44.272;19.892;2022-07-23T06:08:28;4.18;;;3.88;;
10031;SDS011;5056;44.272;19.892;2022-07-23T06:10:55;4.97;;;4.50;;
10031;SDS011;5056;44.272;19.892;2022-07-23T06:13:22;5.38;;;4.28;;
10031;SDS011;5056;44.272;19.892;2022-07-23T06:15:49;4.55;;;4.25;;
10031;SDS011;5056;44.272;19.892;2022-07-23T06:18:16;5.13;;;4.30;;
10031;SDS011;5056;44.272;19.892;2022-07-23T06:20:44;4.50;;;4.20;;
10031;SDS011;5056;44.272;19.892;2022-07-23T06:23:11;5.32;;;4.82;;
10031;SDS011;5056;44.272;19.892;2022-07-23T06:31:38;5.18;;;4.72;;
10031;SDS011;5056;44.272;19.892;2022-07-23T06:34:07;6.13;;;4.50;;
10031;SDS011;5056;44.272;19.892;2022-07-23T06:36:34;4.70;;;4.40;;
10031;SDS011;5056;44.272;19.892;2022-07-23T06:39:01;7.22;;;4.45;;
10031;SDS011;5056;44.272;19.892;2022-07-23T06:41:30;4.53;;;4.18;;
10031;SDS011;5056;44.272;19.892;2022-07-23T06:43:58;5.70;;;4.50;;
10031;SDS011;5056;44.272;19.892;2022-07-23T06:46:24;10.45;;;5.72;;
10031;SDS011;5056;44.272;19.892;2022-07-23T06:48:51;9.90;;;5.05;;
10031;SDS011;5056;44.272;19.892;2022-07-23T06:51:18;7.75;;;4.88;;
10031;SDS011;5056;44.272;19.892;2022-07-23T06:53:46;6.43;;;4.65;;
10031;SDS011;5056;44.272;19.892;2022-07-23T06:56:14;8.27;;;5.22;;
10031;SDS011;5056;44.272;19.892;2022-07-23T06:58:44;5.90;;;5.38;;
10031;SDS011;5056;44.272;19.892;2022-07-23T07:01:11;12.30;;;6.05;;
10031;SDS011;5056;44.272;19.892;2022-07-23T07:03:40;5.85;;;5.15;;
10031;SDS011;5056;44.272;19.892;2022-07-23T07:06:07;7.60;;;5.10;;
10031;SDS011;5056;44.272;19.892;2022-07-23T07:08:35;11.48;;;5.43;;
10031;SDS011;5056;44.272;19.892;2022-07-23T07:13:54;11.13;;;7.05;;
10031;SDS011;5056;44.272;19.892;2022-07-23T07:16:20;11.32;;;6.45;;
10031;SDS011;5056;44.272;19.892;2022-07-23T07:18:48;11.93;;;6.72;;
10031;SDS011;5056;44.272;19.892;2022-07-23T07:21:15;8.18;;;6.05;;
10031;SDS011;5056;44.272;19.892;2022-07-23T07:23:45;13.43;;;6.50;;
10031;SDS011;5056;44.272;19.892;2022-07-23T07:26:12;6.70;;;5.10;;
10031;SDS011;5056;44.272;19.892;2022-07-23T07:28:39;10.60;;;5.20;;
10031;SDS011;5056;44.272;19.892;2022-07-23T07:31:08;13.90;;;6.28;;
10031;SDS011;5056;44.272;19.892;2022-07-23T07:33:37;10.40;;;6.18;;
10031;SDS011;5056;44.272;19.892;2022-07-23T07:36:04;13.25;;;7.30;;
10031;SDS011;5056;44.272;19.892;2022-07-23T07:38:32;11.27;;;6.82;;
10031;SDS011;5056;44.272;19.892;2022-07-23T07:40:59;11.60;;;5.70;;
10031;SDS011;5056;44.272;19.892;2022-07-23T07:43:26;12.15;;;6.15;;
10031;SDS011;5056;44.272;19.892;2022-07-23T07:45:54;15.30;;;6.03;;
10031;SDS011;5056;44.272;19.892;2022-07-23T07:48:23;15.23;;;6.60;;
10031;SDS011;5056;44.272;19.892;2022-07-23T07:50:51;7.65;;;4.68;;
10031;SDS011;5056;44.272;19.892;2022-07-23T07:53:20;13.13;;;5.97;;
10031;SDS011;5056;44.272;19.892;2022-07-23T07:55:48;13.90;;;6.32;;
10031;SDS011;5056;44.272;19.892;2022-07-23T07:58:16;13.85;;;6.07;;
10031;SDS011;5056;44.272;19.892;2022-07-23T08:00:44;7.32;;;5.50;;
10031;SDS011;5056;44.272;19.892;2022-07-23T08:03:13;11.80;;;5.10;;
10031;SDS011;5056;44.272;19.892;2022-07-23T08:05:52;5.57;;;4.70;;
10031;SDS011;5056;44.272;19.892;2022-07-23T08:08:19;14.68;;;5.85;;
10031;SDS011;5056;44.272;19.892;2022-07-23T08:10:46;11.80;;;7.13;;
10031;SDS011;5056;44.272;19.892;2022-07-23T08:16:06;7.43;;;6.10;;
10031;SDS011;5056;44.272;19.892;2022-07-23T08:18:35;8.57;;;5.50;;
10031;SDS011;5056;44.272;19.892;2022-07-23T08:21:03;8.35;;;4.75;;
10031;SDS011;5056;44.272;19.892;2022-07-23T08:23:30;9.90;;;5.05;;
10031;SDS011;5056;44.272;19.892;2022-07-23T08:25:58;7.07;;;5.28;;
10031;SDS011;5056;44.272;19.892;2022-07-23T08:28:26;8.20;;;4.57;;
10031;SDS011;5056;44.272;19.892;2022-07-23T08:30:53;8.18;;;4.53;;
10031;SDS011;5056;44.272;19.892;2022-07-23T08:33:29;4.53;;;4.13;;
10031;SDS011;5056;44.272;19.892;2022-07-23T08:36:00;10.40;;;4.85;;
10031;SDS011;5056;44.272;19.892;2022-07-23T08:38:30;6.95;;;4.20;;
10031;SDS011;5056;44.272;19.892;2022-07-23T08:40:57;9.00;;;4.82;;
10031;SDS011;5056;44.272;19.892;2022-07-23T08:43:27;12.18;;;5.03;;
10031;SDS011;5056;44.272;19.892;2022-07-23T08:45:57;8.60;;;4.72;;
10031;SDS011;5056;44.272;19.892;2022-07-23T08:48:29;7.50;;;4.75;;
10031;SDS011;5056;44.272;19.892;2022-07-23T08:50:58;4.78;;;4.47;;
10031;SDS011;5056;44.272;19.892;2022-07-23T08:53:27;8.10;;;5.32;;
10031;SDS011;5056;44.272;19.892;2022-07-23T08:55:58;8.00;;;5.20;;
10031;SDS011;5056;44.272;19.892;2022-07-23T08:58:27;7.75;;;4.35;;
10031;SDS011;5056;44.272;19.892;2022-07-23T09:00:56;5.40;;;5.00;;
10031;SDS011;5056;44.272;19.892;2022-07-23T09:03:25;5.20;;;4.68;;
10031;SDS011;5056;44.272;19.892;2022-07-23T09:05:56;13.38;;;5.18;;
10031;SDS011;5056;44.272;19.892;2022-07-23T09:08:25;7.28;;;4.70;;
10031;SDS011;5056;44.272;19.892;2022-07-23T09:11:02;6.22;;;4.70;;
10031;SDS011;5056;44.272;19.892;2022-07-23T09:13:34;7.95;;;4.72;;
10031;SDS011;5056;44.272;19.892;2022-07-23T09:16:06;7.10;;;5.05;;
10031;SDS011;5056;44.272;19.892;2022-07-23T09:18:38;4.88;;;4.47;;
10031;SDS011;5056;44.272;19.892;2022-07-23T09:21:13;10.30;;;4.88;;
10031;SDS011;5056;44.272;19.892;2022-07-23T09:23:58;6.20;;;4.63;;
10031;SDS011;5056;44.272;19.892;2022-07-23T09:26:29;4.78;;;4.47;;
10031;SDS011;5056;44.272;19.892;2022-07-23T09:28:59;8.07;;;4.88;;
10031;SDS011;5056;44.272;19.892;2022-07-23T09:31:32;5.07;;;4.65;;
10031;SDS011;5056;44.272;19.892;2022-07-23T09:34:08;4.78;;;4.30;;
10031;SDS011;5056;44.272;19.892;2022-07-23T09:36:38;5.55;;;5.03;;
10031;SDS011;5056;44.272;19.892;2022-07-23T09:39:05;5.45;;;4.28;;
10031;SDS011;5056;44.272;19.892;2022-07-23T09:41:47;5.10;;;4.70;;
10031;SDS011;5056;44.272;19.892;2022-07-23T09:44:16;6.30;;;4.85;;
10031;SDS011;5056;44.272;19.892;2022-07-23T09:46:44;6.38;;;5.38;;
10031;SDS011;5056;44.272;19.892;2022-07-23T09:49:15;7.28;;;4.93;;
10031;SDS011;5056;44.272;19.892;2022-07-23T09:51:43;6.53;;;4.63;;
10031;SDS011;5056;44.272;19.892;2022-07-23T09:54:20;4.70;;;4.38;;
10031;SDS011;5056;44.272;19.892;2022-07-23T09:56:51;6.88;;;4.53;;
10031;SDS011;5056;44.272;19.892;2022-07-23T09:59:18;6.80;;;4.65;;
10031;SDS011;5056;44.272;19.892;2022-07-23T10:01:48;8.73;;;5.05;;
10031;SDS011;5056;44.272;19.892;2022-07-23T10:04:18;11.65;;;4.88;;
10031;SDS011;5056;44.272;19.892;2022-07-23T10:06:48;8.43;;;4.68;;
10031;SDS011;5056;44.272;19.892;2022-07-23T10:09:18;6.32;;;4.95;;
10031;SDS011;5056;44.272;19.892;2022-07-23T10:11:53;5.03;;;3.95;;
10031;SDS011;5056;44.272;19.892;2022-07-23T10:14:25;4.80;;;4.28;;
10031;SDS011;5056;44.272;19.892;2022-07-23T10:16:54;4.90;;;4.38;;
10031;SDS011;5056;44.272;19.892;2022-07-23T10:19:22;5.05;;;4.57;;
10031;SDS011;5056;44.272;19.892;2022-07-23T10:21:51;5.38;;;4.88;;
10031;SDS011;5056;44.272;19.892;2022-07-23T10:24:24;5.90;;;5.03;;
10031;SDS011;5056;44.272;19.892;2022-07-23T10:27:02;9.00;;;4.93;;
10031;SDS011;5056;44.272;19.892;2022-07-23T10:29:39;5.75;;;4.97;;
10031;SDS011;5056;44.272;19.892;2022-07-23T10:32:14;7.35;;;4.88;;
10031;SDS011;5056;44.272;19.892;2022-07-23T10:34:50;5.57;;;4.82;;
10031;SDS011;5056;44.272;19.892;2022-07-23T10:37:28;10.88;;;4.97;;
10031;SDS011;5056;44.272;19.892;2022-07-23T10:40:09;10.63;;;4.50;;
10031;SDS011;5056;44.272;19.892;2022-07-23T10:42:43;5.03;;;4.60;;
10031;SDS011;5056;44.272;19.892;2022-07-23T10:45:27;5.10;;;4.70;;
10031;SDS011;5056;44.272;19.892;2022-07-23T10:51:20;6.97;;;4.70;;
10031;SDS011;5056;44.272;19.892;2022-07-23T10:53:53;5.05;;;4.47;;
10031;SDS011;5056;44.272;19.892;2022-07-23T10:59:18;7.00;;;4.57;;
10031;SDS011;5056;44.272;19.892;2022-07-23T11:01:45;9.15;;;5.05;;
10031;SDS011;5056;44.272;19.892;2022-07-23T11:04:12;6.28;;;5.10;;
10031;SDS011;5056;44.272;19.892;2022-07-23T11:09:42;8.55;;;5.63;;
10031;SDS011;5056;44.272;19.892;2022-07-23T11:15:04;7.38;;;5.15;;
10031;SDS011;5056;44.272;19.892;2022-07-23T11:17:36;12.80;;;5.13;;
10031;SDS011;5056;44.272;19.892;2022-07-23T11:20:15;5.70;;;5.20;;
10031;SDS011;5056;44.272;19.892;2022-07-23T11:22:54;6.03;;;5.28;;
10031;SDS011;5056;44.272;19.892;2022-07-23T11:25:33;6.15;;;5.15;;
10031;SDS011;5056;44.272;19.892;2022-07-23T11:28:09;5.85;;;4.68;;
10031;SDS011;5056;44.272;19.892;2022-07-23T11:30:41;6.25;;;5.03;;
10031;SDS011;5056;44.272;19.892;2022-07-23T11:33:15;6.15;;;5.32;;
10031;SDS011;5056;44.272;19.892;2022-07-23T11:35:47;6.57;;;4.93;;
10031;SDS011;5056;44.272;19.892;2022-07-23T11:38:17;12.50;;;5.72;;
10031;SDS011;5056;44.272;19.892;2022-07-23T11:40:46;7.97;;;4.60;;
10031;SDS011;5056;44.272;19.892;2022-07-23T11:43:17;6.38;;;5.10;;
10031;SDS011;5056;44.272;19.892;2022-07-23T11:45:48;5.68;;;5.13;;
10031;SDS011;5056;44.272;19.892;2022-07-23T11:48:17;5.22;;;4.82;;
10031;SDS011;5056;44.272;19.892;2022-07-23T11:50:45;6.15;;;5.63;;
10031;SDS011;5056;44.272;19.892;2022-07-23T11:53:12;5.20;;;4.70;;
10031;SDS011;5056;44.272;19.892;2022-07-23T11:55:39;5.05;;;4.65;;
10031;SDS011;5056;44.272;19.892;2022-07-23T11:58:06;5.38;;;4.93;;
10031;SDS011;5056;44.272;19.892;2022-07-23T12:00:36;5.30;;;4.90;;
10031;SDS011;5056;44.272;19.892;2022-07-23T12:03:08;6.28;;;5.25;;
10031;SDS011;5056;44.272;19.892;2022-07-23T12:05:36;9.30;;;5.57;;
10031;SDS011;5056;44.272;19.892;2022-07-23T12:08:04;5.68;;;5.28;;
10031;SDS011;5056;44.272;19.892;2022-07-23T12:10:34;9.35;;;7.40;;
10031;SDS011;5056;44.272;19.892;2022-07-23T12:13:03;5.93;;;5.40;;
10031;SDS011;5056;44.272;19.892;2022-07-23T12:15:32;12.45;;;6.03;;
10031;SDS011;5056;44.272;19.892;2022-07-23T12:18:03;9.55;;;5.88;;
10031;SDS011;5056;44.272;19.892;2022-07-23T12:20:36;6.18;;;5.57;;
10031;SDS011;5056;44.272;19.892;2022-07-23T12:23:07;5.95;;;5.40;;
10031;SDS011;5056;44.272;19.892;2022-07-23T12:25:37;6.28;;;5.63;;
10031;SDS011;5056;44.272;19.892;2022-07-23T12:28:06;5.60;;;5.20;;
10031;SDS011;5056;44.272;19.892;2022-07-23T12:30:37;6.47;;;5.97;;
10031;SDS011;5056;44.272;19.892;2022-07-23T12:33:05;7.38;;;6.70;;
10031;SDS011;5056;44.272;19.892;2022-07-23T12:35:34;5.85;;;5.43;;
10031;SDS011;5056;44.272;19.892;2022-07-23T12:38:06;6.00;;;5.53;;
10031;SDS011;5056;44.272;19.892;2022-07-23T12:40:35;6.68;;;6.15;;
10031;SDS011;5056;44.272;19.892;2022-07-23T12:43:05;6.43;;;5.80;;
10031;SDS011;5056;44.272;19.892;2022-07-23T12:45:48;9.70;;;6.70;;
10031;SDS011;5056;44.272;19.892;2022-07-23T12:48:18;6.60;;;6.00;;
10031;SDS011;5056;44.272;19.892;2022-07-23T12:50:53;6.10;;;5.40;;
10031;SDS011;5056;44.272;19.892;2022-07-23T12:53:24;8.82;;;5.70;;
10031;SDS011;5056;44.272;19.892;2022-07-23T12:55:57;6.80;;;6.10;;
10031;SDS011;5056;44.272;19.892;2022-07-23T12:58:41;6.88;;;5.00;;
10031;SDS011;5056;44.272;19.892;2022-07-23T13:04:00;7.07;;;5.80;;
10031;SDS011;5056;44.272;19.892;2022-07-23T13:06:31;5.57;;;5.15;;
10031;SDS011;5056;44.272;19.892;2022-07-23T13:09:00;6.07;;;5.47;;
10031;SDS011;5056;44.272;19.892;2022-07-23T13:11:28;6.47;;;5.78;;
10031;SDS011;5056;44.272;19.892;2022-07-23T13:13:55;5.68;;;5.28;;
10031;SDS011;5056;44.272;19.892;2022-07-23T13:16:22;6.38;;;5.45;;
10031;SDS011;5056;44.272;19.892;2022-07-23T13:19:04;6.25;;;5.75;;
10031;SDS011;5056;44.272;19.892;2022-07-23T13:21:34;5.85;;;5.18;;
10031;SDS011;5056;44.272;19.892;2022-07-23T13:24:01;6.18;;;5.68;;
10031;SDS011;5056;44.272;19.892;2022-07-23T13:26:28;5.40;;;5.00;;
10031;SDS011;5056;44.272;19.892;2022-07-23T13:28:55;5.72;;;5.22;;
10031;SDS011;5056;44.272;19.892;2022-07-23T13:31:23;5.90;;;5.35;;
10031;SDS011;5056;44.272;19.892;2022-07-23T13:33:50;6.75;;;5.15;;
10031;SDS011;5056;44.272;19.892;2022-07-23T13:36:18;8.25;;;5.47;;
10031;SDS011;5056;44.272;19.892;2022-07-23T13:38:49;7.13;;;5.07;;
10031;SDS011;5056;44.272;19.892;2022-07-23T13:41:16;6.20;;;5.60;;
10031;SDS011;5056;44.272;19.892;2022-07-23T13:43:44;6.90;;;5.88;;
10031;SDS011;5056;44.272;19.892;2022-07-23T13:46:11;7.45;;;6.95;;
10031;SDS011;5056;44.272;19.892;2022-07-23T13:48:37;6.22;;;5.72;;
10031;SDS011;5056;44.272;19.892;2022-07-23T13:51:05;6.63;;;6.00;;
10031;SDS011;5056;44.272;19.892;2022-07-23T13:53:33;5.88;;;5.35;;
10031;SDS011;5056;44.272;19.892;2022-07-23T13:56:01;6.13;;;5.38;;
10031;SDS011;5056;44.272;19.892;2022-07-23T13:58:29;6.65;;;6.00;;
10031;SDS011;5056;44.272;19.892;2022-07-23T14:00:56;5.57;;;5.28;;
10031;SDS011;5056;44.272;19.892;2022-07-23T14:03:25;5.70;;;5.30;;
10031;SDS011;5056;44.272;19.892;2022-07-23T14:05:52;6.28;;;5.72;;
10031;SDS011;5056;44.272;19.892;2022-07-23T14:08:21;5.55;;;5.15;;
10031;SDS011;5056;44.272;19.892;2022-07-23T14:10:48;7.53;;;6.20;;
10031;SDS011;5056;44.272;19.892;2022-07-23T14:13:18;7.00;;;6.43;;
10031;SDS011;5056;44.272;19.892;2022-07-23T14:15:45;8.15;;;6.05;;
10031;SDS011;5056;44.272;19.892;2022-07-23T14:18:12;5.40;;;5.00;;
10031;SDS011;5056;44.272;19.892;2022-07-23T14:20:40;10.18;;;6.00;;
10031;SDS011;5056;44.272;19.892;2022-07-23T14:23:10;6.68;;;5.53;;
10031;SDS011;5056;44.272;19.892;2022-07-23T14:25:39;5.85;;;5.32;;
10031;SDS011;5056;44.272;19.892;2022-07-23T14:28:06;5.65;;;5.25;;
10031;SDS011;5056;44.272;19.892;2022-07-23T14:30:35;6.90;;;5.40;;
10031;SDS011;5056;44.272;19.892;2022-07-23T14:33:02;5.47;;;5.10;;
10031;SDS011;5056;44.272;19.892;2022-07-23T14:35:29;7.22;;;6.00;;
10031;SDS011;5056;44.272;19.892;2022-07-23T14:37:56;7.07;;;5.70;;
10031;SDS011;5056;44.272;19.892;2022-07-23T14:40:23;6.65;;;6.00;;
10031;SDS011;5056;44.272;19.892;2022-07-23T14:42:51;5.57;;;5.15;;
10031;SDS011;5056;44.272;19.892;2022-07-23T14:45:26;5.55;;;5.07;;
10031;SDS011;5056;44.272;19.892;2022-07-23T14:47:56;6.20;;;5.70;;
10031;SDS011;5056;44.272;19.892;2022-07-23T14:50:23;5.70;;;5.40;;
10031;SDS011;5056;44.272;19.892;2022-07-23T14:52:51;7.68;;;5.80;;
10031;SDS011;5056;44.272;19.892;2022-07-23T14:55:18;6.15;;;5.70;;
10031;SDS011;5056;44.272;19.892;2022-07-23T14:57:45;6.13;;;5.53;;
10031;SDS011;5056;44.272;19.892;2022-07-23T15:00:12;7.40;;;5.95;;
10031;SDS011;5056;44.272;19.892;2022-07-23T15:02:40;6.28;;;5.72;;
10031;SDS011;5056;44.272;19.892;2022-07-23T15:05:10;6.13;;;5.63;;
10031;SDS011;5056;44.272;19.892;2022-07-23T15:07:37;6.00;;;5.40;;
10031;SDS011;5056;44.272;19.892;2022-07-23T15:10:04;6.43;;;5.63;;
10031;SDS011;5056;44.272;19.892;2022-07-23T15:12:31;5.00;;;4.70;;
10031;SDS011;5056;44.272;19.892;2022-07-23T15:15:04;7.20;;;6.30;;
10031;SDS011;5056;44.272;19.892;2022-07-23T15:17:32;7.30;;;5.95;;
10031;SDS011;5056;44.272;19.892;2022-07-23T15:20:00;5.65;;;5.25;;
10031;SDS011;5056;44.272;19.892;2022-07-23T15:22:32;6.47;;;5.68;;
10031;SDS011;5056;44.272;19.892;2022-07-23T15:25:00;7.15;;;6.45;;
10031;SDS011;5056;44.272;19.892;2022-07-23T15:27:28;6.80;;;5.97;;
10031;SDS011;5056;44.272;19.892;2022-07-23T15:29:56;6.45;;;5.82;;
10031;SDS011;5056;44.272;19.892;2022-07-23T15:32:23;6.75;;;6.03;;